sensor_id;sensor_type;location;lat;lon;timestamp;pressure;altitude;pressure_sealevel;temperature;humidity
34235;BME280;20500;49.856;20.290;2022-12-07T00:02:51;98419.02;;;2.81;88.57
34235;BME280;20500;49.856;20.290;2022-12-07T00:05:59;98416.12;;;2.84;88.63
34235;BME280;20500;49.856;20.290;2022-12-07T00:09:08;98412.86;;;2.86;88.70
34235;BME280;20500;49.856;20.290;2022-12-07T00:12:14;98414.53;;;2.85;88.57
34235;BME280;20500;49.856;20.290;2022-12-07T00:15:20;98413.77;;;2.84;88.53
34235;BME280;20500;49.856;20.290;2022-12-07T00:18:26;98412.98;;;2.83;88.57
34235;BME280;20500;49.856;20.290;2022-12-07T00:21:32;98413.27;;;2.82;88.41
34235;BME280;20500;49.856;20.290;2022-12-07T00:24:39;98416.19;;;2.76;88.40
34235;BME280;20500;49.856;20.290;2022-12-07T00:27:44;98417.12;;;2.72;88.39
34235;BME280;20500;49.856;20.290;2022-12-07T00:30:50;98418.15;;;2.63;88.22
34235;BME280;20500;49.856;20.290;2022-12-07T00:33:56;98418.83;;;2.56;88.22
34235;BME280;20500;49.856;20.290;2022-12-07T00:37:02;98419.13;;;2.51;88.43
34235;BME280;20500;49.856;20.290;2022-12-07T00:40:09;98418.73;;;2.52;88.58
34235;BME280;20500;49.856;20.290;2022-12-07T00:43:15;98416.61;;;2.53;88.53
34235;BME280;20500;49.856;20.290;2022-12-07T00:46:22;98420.98;;;2.56;88.46
34235;BME280;20500;49.856;20.290;2022-12-07T00:49:27;98416.05;;;2.57;88.42
34235;BME280;20500;49.856;20.290;2022-12-07T00:52:33;98417.10;;;2.57;88.37
34235;BME280;20500;49.856;20.290;2022-12-07T00:55:39;98415.86;;;2.55;88.37
34235;BME280;20500;49.856;20.290;2022-12-07T00:58:45;98419.91;;;2.56;88.39
34235;BME280;20500;49.856;20.290;2022-12-07T01:01:54;98413.88;;;2.55;88.40
34235;BME280;20500;49.856;20.290;2022-12-07T01:05:00;98416.84;;;2.56;88.37
34235;BME280;20500;49.856;20.290;2022-12-07T01:08:06;98408.80;;;2.56;88.29
34235;BME280;20500;49.856;20.290;2022-12-07T01:11:14;98406.35;;;2.55;88.34
34235;BME280;20500;49.856;20.290;2022-12-07T01:14:20;98401.83;;;2.56;88.38
34235;BME280;20500;49.856;20.290;2022-12-07T01:17:26;98403.13;;;2.57;88.38
34235;BME280;20500;49.856;20.290;2022-12-07T01:20:31;98407.02;;;2.59;88.36
34235;BME280;20500;49.856;20.290;2022-12-07T01:23:37;98403.48;;;2.61;88.31
34235;BME280;20500;49.856;20.290;2022-12-07T01:26:43;98400.15;;;2.60;88.20
34235;BME280;20500;49.856;20.290;2022-12-07T01:29:49;98400.18;;;2.60;88.30
34235;BME280;20500;49.856;20.290;2022-12-07T01:32:56;98396.84;;;2.61;88.26
34235;BME280;20500;49.856;20.290;2022-12-07T01:36:14;98390.89;;;2.61;88.20
34235;BME280;20500;49.856;20.290;2022-12-07T01:39:19;98389.79;;;2.62;88.27
34235;BME280;20500;49.856;20.290;2022-12-07T01:42:25;98388.71;;;2.62;88.38
34235;BME280;20500;49.856;20.290;2022-12-07T01:45:39;98384.36;;;2.62;88.30
34235;BME280;20500;49.856;20.290;2022-12-07T01:48:46;98388.56;;;2.65;88.26
34235;BME280;20500;49.856;20.290;2022-12-07T01:51:54;98386.36;;;2.64;88.12
34235;BME280;20500;49.856;20.290;2022-12-07T01:55:06;98381.70;;;2.60;88.18
34235;BME280;20500;49.856;20.290;2022-12-07T01:58:13;98383.34;;;2.60;88.22
34235;BME280;20500;49.856;20.290;2022-12-07T02:01:20;98383.80;;;2.61;88.39
34235;BME280;20500;49.856;20.290;2022-12-07T02:04:26;98389.86;;;2.64;88.42
34235;BME280;20500;49.856;20.290;2022-12-07T02:07:32;98385.31;;;2.67;88.22
34235;BME280;20500;49.856;20.290;2022-12-07T02:10:40;98384.08;;;2.67;88.12
34235;BME280;20500;49.856;20.290;2022-12-07T02:13:47;98379.32;;;2.62;88.00
34235;BME280;20500;49.856;20.290;2022-12-07T02:17:03;98383.68;;;2.60;87.97
34235;BME280;20500;49.856;20.290;2022-12-07T02:20:20;98381.47;;;2.59;88.10
34235;BME280;20500;49.856;20.290;2022-12-07T02:23:45;98379.39;;;2.55;87.96
34235;BME280;20500;49.856;20.290;2022-12-07T02:27:19;98378.27;;;2.51;88.10
34235;BME280;20500;49.856;20.290;2022-12-07T02:30:31;98377.41;;;2.45;88.02
34235;BME280;20500;49.856;20.290;2022-12-07T02:33:44;98379.96;;;2.42;88.17
34235;BME280;20500;49.856;20.290;2022-12-07T02:36:55;98379.05;;;2.41;88.12
34235;BME280;20500;49.856;20.290;2022-12-07T02:40:08;98376.95;;;2.35;87.89
34235;BME280;20500;49.856;20.290;2022-12-07T02:43:18;98376.83;;;2.27;87.94
34235;BME280;20500;49.856;20.290;2022-12-07T02:46:28;98375.52;;;2.22;87.87
34235;BME280;20500;49.856;20.290;2022-12-07T02:49:37;98377.41;;;2.23;88.08
34235;BME280;20500;49.856;20.290;2022-12-07T02:52:44;98371.63;;;2.27;88.42
34235;BME280;20500;49.856;20.290;2022-12-07T02:55:50;98371.59;;;2.33;88.31
34235;BME280;20500;49.856;20.290;2022-12-07T02:59:02;98369.92;;;2.37;88.27
34235;BME280;20500;49.856;20.290;2022-12-07T03:02:19;98367.90;;;2.40;88.17
34235;BME280;20500;49.856;20.290;2022-12-07T03:05:43;98365.47;;;2.42;88.34
34235;BME280;20500;49.856;20.290;2022-12-07T03:08:55;98360.10;;;2.48;88.46
34235;BME280;20500;49.856;20.290;2022-12-07T03:12:09;98358.27;;;2.53;88.46
34235;BME280;20500;49.856;20.290;2022-12-07T03:15:22;98357.41;;;2.52;88.13
34235;BME280;20500;49.856;20.290;2022-12-07T03:18:35;98357.10;;;2.51;88.20
34235;BME280;20500;49.856;20.290;2022-12-07T03:21:44;98358.52;;;2.54;88.41
34235;BME280;20500;49.856;20.290;2022-12-07T03:24:55;98353.67;;;2.56;88.30
34235;BME280;20500;49.856;20.290;2022-12-07T03:28:04;98349.29;;;2.55;88.18
34235;BME280;20500;49.856;20.290;2022-12-07T03:31:14;98347.60;;;2.54;88.21
34235;BME280;20500;49.856;20.290;2022-12-07T03:34:27;98349.41;;;2.53;88.28
34235;BME280;20500;49.856;20.290;2022-12-07T03:37:38;98344.83;;;2.52;88.26
34235;BME280;20500;49.856;20.290;2022-12-07T03:40:50;98345.77;;;2.52;88.21
34235;BME280;20500;49.856;20.290;2022-12-07T03:43:58;98343.04;;;2.51;88.24
34235;BME280;20500;49.856;20.290;2022-12-07T03:47:06;98340.00;;;2.47;88.11
34235;BME280;20500;49.856;20.290;2022-12-07T03:50:21;98337.65;;;2.41;88.28
34235;BME280;20500;49.856;20.290;2022-12-07T03:53:35;98337.86;;;2.43;88.27
34235;BME280;20500;49.856;20.290;2022-12-07T03:56:44;98337.77;;;2.46;88.36
34235;BME280;20500;49.856;20.290;2022-12-07T03:59:51;98335.27;;;2.48;88.44
34235;BME280;20500;49.856;20.290;2022-12-07T04:02:59;98334.56;;;2.49;88.42
34235;BME280;20500;49.856;20.290;2022-12-07T04:06:05;98331.17;;;2.51;88.39
34235;BME280;20500;49.856;20.290;2022-12-07T04:09:10;98331.42;;;2.52;88.35
34235;BME280;20500;49.856;20.290;2022-12-07T04:12:15;98333.56;;;2.53;88.33
34235;BME280;20500;49.856;20.290;2022-12-07T04:15:21;98330.90;;;2.52;88.28
34235;BME280;20500;49.856;20.290;2022-12-07T04:18:27;98328.55;;;2.52;88.38
34235;BME280;20500;49.856;20.290;2022-12-07T04:21:32;98327.95;;;2.53;88.33
34235;BME280;20500;49.856;20.290;2022-12-07T04:24:38;98325.13;;;2.53;88.46
34235;BME280;20500;49.856;20.290;2022-12-07T04:27:44;98323.92;;;2.52;88.50
34235;BME280;20500;49.856;20.290;2022-12-07T04:30:50;98326.59;;;2.54;88.68
34235;BME280;20500;49.856;20.290;2022-12-07T04:33:55;98323.29;;;2.51;88.46
34235;BME280;20500;49.856;20.290;2022-12-07T04:37:01;98325.61;;;2.46;88.43
34235;BME280;20500;49.856;20.290;2022-12-07T04:40:09;98326.25;;;2.44;88.47
34235;BME280;20500;49.856;20.290;2022-12-07T04:43:15;98322.86;;;2.42;88.38
34235;BME280;20500;49.856;20.290;2022-12-07T04:46:21;98322.02;;;2.44;88.51
34235;BME280;20500;49.856;20.290;2022-12-07T04:49:27;98324.94;;;2.45;88.52
34235;BME280;20500;49.856;20.290;2022-12-07T04:52:32;98325.11;;;2.49;88.63
34235;BME280;20500;49.856;20.290;2022-12-07T04:55:38;98320.89;;;2.52;88.45
34235;BME280;20500;49.856;20.290;2022-12-07T04:58:46;98319.71;;;2.53;88.43
34235;BME280;20500;49.856;20.290;2022-12-07T05:01:52;98315.83;;;2.54;88.47
34235;BME280;20500;49.856;20.290;2022-12-07T05:04:57;98315.50;;;2.54;88.44
34235;BME280;20500;49.856;20.290;2022-12-07T05:08:03;98316.51;;;2.55;88.53
34235;BME280;20500;49.856;20.290;2022-12-07T05:11:09;98313.06;;;2.53;88.52
34235;BME280;20500;49.856;20.290;2022-12-07T05:14:36;98319.00;;;2.51;88.51
34235;BME280;20500;49.856;20.290;2022-12-07T05:17:42;98315.02;;;2.46;88.38
34235;BME280;20500;49.856;20.290;2022-12-07T05:20:47;98318.75;;;2.42;88.39
34235;BME280;20500;49.856;20.290;2022-12-07T05:23:53;98322.95;;;2.40;88.40
34235;BME280;20500;49.856;20.290;2022-12-07T05:26:59;98324.80;;;2.37;88.32
34235;BME280;20500;49.856;20.290;2022-12-07T05:30:07;98326.63;;;2.35;88.40
34235;BME280;20500;49.856;20.290;2022-12-07T05:33:13;98324.27;;;2.34;88.46
34235;BME280;20500;49.856;20.290;2022-12-07T05:36:18;98323.83;;;2.29;88.39
34235;BME280;20500;49.856;20.290;2022-12-07T05:39:23;98323.16;;;2.27;88.55
34235;BME280;20500;49.856;20.290;2022-12-07T05:42:28;98324.12;;;2.26;88.54
34235;BME280;20500;49.856;20.290;2022-12-07T05:45:34;98327.04;;;2.23;88.52
34235;BME280;20500;49.856;20.290;2022-12-07T05:48:40;98331.20;;;2.23;88.46
34235;BME280;20500;49.856;20.290;2022-12-07T05:51:45;98330.89;;;2.28;88.70
34235;BME280;20500;49.856;20.290;2022-12-07T05:54:51;98332.93;;;2.33;88.85
34235;BME280;20500;49.856;20.290;2022-12-07T05:57:57;98338.09;;;2.37;88.80
34235;BME280;20500;49.856;20.290;2022-12-07T06:01:20;98342.01;;;2.41;88.66
34235;BME280;20500;49.856;20.290;2022-12-07T06:04:28;98344.27;;;2.43;88.64
34235;BME280;20500;49.856;20.290;2022-12-07T06:07:34;98341.88;;;2.44;88.54
34235;BME280;20500;49.856;20.290;2022-12-07T06:10:39;98340.72;;;2.45;88.79
34235;BME280;20500;49.856;20.290;2022-12-07T06:13:46;98341.33;;;2.46;88.67
34235;BME280;20500;49.856;20.290;2022-12-07T06:16:51;98344.27;;;2.47;88.64
34235;BME280;20500;49.856;20.290;2022-12-07T06:19:57;98343.53;;;2.47;88.74
34235;BME280;20500;49.856;20.290;2022-12-07T06:23:02;98339.77;;;2.48;88.80
34235;BME280;20500;49.856;20.290;2022-12-07T06:26:07;98341.98;;;2.47;88.84
34235;BME280;20500;49.856;20.290;2022-12-07T06:29:14;98340.54;;;2.47;88.91
34235;BME280;20500;49.856;20.290;2022-12-07T06:32:19;98340.90;;;2.49;88.94
34235;BME280;20500;49.856;20.290;2022-12-07T06:35:25;98344.90;;;2.50;88.93
34235;BME280;20500;49.856;20.290;2022-12-07T06:38:31;98347.89;;;2.49;88.90
34235;BME280;20500;49.856;20.290;2022-12-07T06:41:36;98343.50;;;2.48;88.81
34235;BME280;20500;49.856;20.290;2022-12-07T06:44:42;98347.24;;;2.46;88.71
34235;BME280;20500;49.856;20.290;2022-12-07T06:47:48;98348.55;;;2.46;88.79
34235;BME280;20500;49.856;20.290;2022-12-07T06:50:54;98349.74;;;2.42;88.85
34235;BME280;20500;49.856;20.290;2022-12-07T06:54:00;98354.42;;;2.40;88.82
34235;BME280;20500;49.856;20.290;2022-12-07T06:57:05;98355.98;;;2.41;89.10
34235;BME280;20500;49.856;20.290;2022-12-07T07:00:13;98355.21;;;2.41;89.01
34235;BME280;20500;49.856;20.290;2022-12-07T07:03:25;98358.60;;;2.41;88.95
34235;BME280;20500;49.856;20.290;2022-12-07T07:06:31;98361.05;;;2.44;89.06
34235;BME280;20500;49.856;20.290;2022-12-07T07:09:37;98359.90;;;2.45;88.91
34235;BME280;20500;49.856;20.290;2022-12-07T07:12:43;98362.60;;;2.45;88.95
34235;BME280;20500;49.856;20.290;2022-12-07T07:15:48;98361.73;;;2.42;88.99
34235;BME280;20500;49.856;20.290;2022-12-07T07:18:54;98362.73;;;2.43;89.09
34235;BME280;20500;49.856;20.290;2022-12-07T07:22:00;98363.94;;;2.50;89.29
34235;BME280;20500;49.856;20.290;2022-12-07T07:25:06;98365.82;;;2.52;89.13
34235;BME280;20500;49.856;20.290;2022-12-07T07:28:12;98367.48;;;2.54;89.21
34235;BME280;20500;49.856;20.290;2022-12-07T07:31:18;98365.50;;;2.56;89.22
34235;BME280;20500;49.856;20.290;2022-12-07T07:34:23;98367.42;;;2.56;89.11
34235;BME280;20500;49.856;20.290;2022-12-07T07:37:29;98368.70;;;2.54;88.98
34235;BME280;20500;49.856;20.290;2022-12-07T07:40:35;98368.35;;;2.56;89.14
34235;BME280;20500;49.856;20.290;2022-12-07T07:43:41;98370.36;;;2.59;89.24
34235;BME280;20500;49.856;20.290;2022-12-07T07:46:47;98372.17;;;2.60;89.24
34235;BME280;20500;49.856;20.290;2022-12-07T07:49:52;98368.40;;;2.62;89.19
34235;BME280;20500;49.856;20.290;2022-12-07T07:52:59;98367.79;;;2.65;89.16
34235;BME280;20500;49.856;20.290;2022-12-07T07:56:05;98369.20;;;2.67;89.15
34235;BME280;20500;49.856;20.290;2022-12-07T07:59:09;98369.58;;;2.71;89.27
34235;BME280;20500;49.856;20.290;2022-12-07T08:02:17;98372.59;;;2.73;89.23
34235;BME280;20500;49.856;20.290;2022-12-07T08:05:22;98374.67;;;2.72;89.23
34235;BME280;20500;49.856;20.290;2022-12-07T08:08:28;98375.33;;;2.74;89.32
34235;BME280;20500;49.856;20.290;2022-12-07T08:11:34;98374.38;;;2.76;89.32
34235;BME280;20500;49.856;20.290;2022-12-07T08:14:40;98376.40;;;2.78;89.46
34235;BME280;20500;49.856;20.290;2022-12-07T08:17:46;98377.57;;;2.79;89.32
34235;BME280;20500;49.856;20.290;2022-12-07T08:20:52;98385.43;;;2.79;89.23
34235;BME280;20500;49.856;20.290;2022-12-07T08:24:04;98390.82;;;2.82;89.34
34235;BME280;20500;49.856;20.290;2022-12-07T08:27:08;98389.96;;;2.84;89.21
34235;BME280;20500;49.856;20.290;2022-12-07T08:30:14;98394.67;;;2.81;89.17
34235;BME280;20500;49.856;20.290;2022-12-07T08:33:20;98392.05;;;2.79;89.09
34235;BME280;20500;49.856;20.290;2022-12-07T08:36:27;98391.34;;;2.77;88.96
34235;BME280;20500;49.856;20.290;2022-12-07T08:39:33;98396.02;;;2.79;89.20
34235;BME280;20500;49.856;20.290;2022-12-07T08:42:39;98400.33;;;2.80;89.18
34235;BME280;20500;49.856;20.290;2022-12-07T08:45:45;98403.02;;;2.84;89.36
34235;BME280;20500;49.856;20.290;2022-12-07T08:48:50;98406.92;;;2.86;89.25
34235;BME280;20500;49.856;20.290;2022-12-07T08:51:58;98408.79;;;2.87;89.18
34235;BME280;20500;49.856;20.290;2022-12-07T08:55:03;98411.73;;;2.86;89.19
34235;BME280;20500;49.856;20.290;2022-12-07T08:58:09;98410.03;;;2.87;89.30
34235;BME280;20500;49.856;20.290;2022-12-07T09:01:15;98414.07;;;2.88;89.31
34235;BME280;20500;49.856;20.290;2022-12-07T09:04:20;98414.60;;;2.90;89.41
34235;BME280;20500;49.856;20.290;2022-12-07T09:07:26;98410.61;;;2.92;89.37
34235;BME280;20500;49.856;20.290;2022-12-07T09:10:31;98409.23;;;2.94;89.30
34235;BME280;20500;49.856;20.290;2022-12-07T09:13:36;98412.30;;;2.93;89.22
34235;BME280;20500;49.856;20.290;2022-12-07T09:16:42;98410.92;;;2.93;89.15
34235;BME280;20500;49.856;20.290;2022-12-07T09:19:47;98411.95;;;2.93;89.22
34235;BME280;20500;49.856;20.290;2022-12-07T09:22:53;98410.28;;;2.94;89.18
34235;BME280;20500;49.856;20.290;2022-12-07T09:26:01;98411.27;;;2.93;89.04
34235;BME280;20500;49.856;20.290;2022-12-07T09:29:14;98414.15;;;2.89;88.98
34235;BME280;20500;49.856;20.290;2022-12-07T09:32:19;98412.92;;;2.87;88.99
34235;BME280;20500;49.856;20.290;2022-12-07T09:35:25;98410.95;;;2.89;89.13
34235;BME280;20500;49.856;20.290;2022-12-07T09:38:31;98407.26;;;2.92;89.16
34235;BME280;20500;49.856;20.290;2022-12-07T09:41:38;98402.83;;;2.97;89.42
34235;BME280;20500;49.856;20.290;2022-12-07T09:44:45;98398.38;;;3.02;89.14
34235;BME280;20500;49.856;20.290;2022-12-07T09:47:51;98399.66;;;3.04;89.14
34235;BME280;20500;49.856;20.290;2022-12-07T09:50:55;98392.23;;;3.04;89.21
34235;BME280;20500;49.856;20.290;2022-12-07T09:54:03;98388.20;;;3.07;89.00
34235;BME280;20500;49.856;20.290;2022-12-07T09:57:09;98388.59;;;3.09;89.14
34235;BME280;20500;49.856;20.290;2022-12-07T10:00:20;98391.80;;;3.13;89.22
34235;BME280;20500;49.856;20.290;2022-12-07T10:03:27;98395.52;;;3.15;89.04
34235;BME280;20500;49.856;20.290;2022-12-07T10:06:34;98398.23;;;3.18;89.01
34235;BME280;20500;49.856;20.290;2022-12-07T10:09:39;98395.56;;;3.18;88.74
34235;BME280;20500;49.856;20.290;2022-12-07T10:12:59;98396.61;;;3.20;88.93
34235;BME280;20500;49.856;20.290;2022-12-07T10:16:09;98396.53;;;3.21;88.81
34235;BME280;20500;49.856;20.290;2022-12-07T10:19:34;98393.07;;;3.16;88.68
34235;BME280;20500;49.856;20.290;2022-12-07T10:22:41;98391.11;;;3.14;88.82
34235;BME280;20500;49.856;20.290;2022-12-07T10:25:58;98388.25;;;3.17;88.90
34235;BME280;20500;49.856;20.290;2022-12-07T10:29:16;98383.21;;;3.21;88.81
34235;BME280;20500;49.856;20.290;2022-12-07T10:32:32;98380.65;;;3.27;88.83
34235;BME280;20500;49.856;20.290;2022-12-07T10:35:44;98377.85;;;3.33;88.77
34235;BME280;20500;49.856;20.290;2022-12-07T10:38:52;98379.20;;;3.38;88.87
34235;BME280;20500;49.856;20.290;2022-12-07T10:41:59;98379.03;;;3.44;88.92
34235;BME280;20500;49.856;20.290;2022-12-07T10:45:15;98377.55;;;3.48;88.74
34235;BME280;20500;49.856;20.290;2022-12-07T10:48:27;98378.48;;;3.49;88.64
34235;BME280;20500;49.856;20.290;2022-12-07T10:51:42;98375.85;;;3.49;88.56
34235;BME280;20500;49.856;20.290;2022-12-07T10:55:01;98372.91;;;3.51;88.65
34235;BME280;20500;49.856;20.290;2022-12-07T10:58:30;98365.42;;;3.54;88.68
34235;BME280;20500;49.856;20.290;2022-12-07T11:01:43;98359.04;;;3.57;88.55
34235;BME280;20500;49.856;20.290;2022-12-07T11:05:04;98356.05;;;3.63;88.53
34235;BME280;20500;49.856;20.290;2022-12-07T11:08:17;98354.23;;;3.67;88.65
34235;BME280;20500;49.856;20.290;2022-12-07T11:11:33;98347.06;;;3.74;88.72
34235;BME280;20500;49.856;20.290;2022-12-07T11:14:47;98345.61;;;3.82;88.87
34235;BME280;20500;49.856;20.290;2022-12-07T11:18:03;98346.61;;;3.92;88.90
34235;BME280;20500;49.856;20.290;2022-12-07T11:21:19;98345.10;;;4.02;88.85
34235;BME280;20500;49.856;20.290;2022-12-07T11:24:32;98345.10;;;4.10;88.67
34235;BME280;20500;49.856;20.290;2022-12-07T11:27:48;98339.02;;;4.15;88.55
34235;BME280;20500;49.856;20.290;2022-12-07T11:31:08;98338.34;;;4.18;88.40
34235;BME280;20500;49.856;20.290;2022-12-07T11:34:25;98339.54;;;4.22;88.37
34235;BME280;20500;49.856;20.290;2022-12-07T11:37:35;98336.92;;;4.25;88.24
34235;BME280;20500;49.856;20.290;2022-12-07T11:40:45;98331.40;;;4.26;88.08
34235;BME280;20500;49.856;20.290;2022-12-07T11:43:58;98324.61;;;4.29;88.22
34235;BME280;20500;49.856;20.290;2022-12-07T11:47:10;98325.27;;;4.32;88.15
34235;BME280;20500;49.856;20.290;2022-12-07T11:50:36;98328.61;;;4.34;88.21
34235;BME280;20500;49.856;20.290;2022-12-07T11:53:46;98327.90;;;4.39;88.28
34235;BME280;20500;49.856;20.290;2022-12-07T11:56:56;98326.80;;;4.43;88.04
34235;BME280;20500;49.856;20.290;2022-12-07T12:03:25;98319.04;;;4.38;87.72
34235;BME280;20500;49.856;20.290;2022-12-07T12:06:35;98320.28;;;4.38;87.82
34235;BME280;20500;49.856;20.290;2022-12-07T12:09:47;98319.67;;;4.37;87.66
34235;BME280;20500;49.856;20.290;2022-12-07T12:16:50;98324.77;;;4.38;87.60
34235;BME280;20500;49.856;20.290;2022-12-07T12:20:03;98323.59;;;4.37;87.47
34235;BME280;20500;49.856;20.290;2022-12-07T12:23:15;98324.18;;;4.30;87.11
34235;BME280;20500;49.856;20.290;2022-12-07T12:26:23;98320.89;;;4.24;87.02
34235;BME280;20500;49.856;20.290;2022-12-07T12:29:33;98322.31;;;4.24;87.16
34235;BME280;20500;49.856;20.290;2022-12-07T12:32:41;98320.73;;;4.24;86.99
34235;BME280;20500;49.856;20.290;2022-12-07T12:36:22;98316.06;;;4.22;87.02
34235;BME280;20500;49.856;20.290;2022-12-07T12:39:28;98307.45;;;4.24;87.15
34235;BME280;20500;49.856;20.290;2022-12-07T12:42:46;98300.19;;;4.26;87.14
34235;BME280;20500;49.856;20.290;2022-12-07T12:49:41;98295.05;;;4.27;87.00
34235;BME280;20500;49.856;20.290;2022-12-07T12:56:28;98296.21;;;4.25;86.76
34235;BME280;20500;49.856;20.290;2022-12-07T12:59:39;98298.30;;;4.25;86.71
34235;BME280;20500;49.856;20.290;2022-12-07T13:02:51;98295.73;;;4.29;86.96
34235;BME280;20500;49.856;20.290;2022-12-07T13:06:31;98295.24;;;4.32;86.87
34235;BME280;20500;49.856;20.290;2022-12-07T13:09:44;98304.02;;;4.34;86.71
34235;BME280;20500;49.856;20.290;2022-12-07T13:12:58;98303.29;;;4.34;86.72
34235;BME280;20500;49.856;20.290;2022-12-07T13:16:38;98304.52;;;4.36;86.78
34235;BME280;20500;49.856;20.290;2022-12-07T13:19:58;98304.90;;;4.32;85.97
34235;BME280;20500;49.856;20.290;2022-12-07T13:23:08;98301.16;;;4.27;85.85
34235;BME280;20500;49.856;20.290;2022-12-07T13:26:19;98296.64;;;4.22;85.77
34235;BME280;20500;49.856;20.290;2022-12-07T13:29:26;98296.90;;;4.20;85.81
34235;BME280;20500;49.856;20.290;2022-12-07T13:32:31;98297.59;;;4.17;85.60
34235;BME280;20500;49.856;20.290;2022-12-07T13:35:38;98303.79;;;4.12;85.44
34235;BME280;20500;49.856;20.290;2022-12-07T13:38:51;98312.70;;;4.09;85.49
34235;BME280;20500;49.856;20.290;2022-12-07T13:41:57;98319.46;;;4.03;85.23
34235;BME280;20500;49.856;20.290;2022-12-07T13:45:22;98317.84;;;3.98;85.22
34235;BME280;20500;49.856;20.290;2022-12-07T13:48:51;98314.19;;;3.97;85.19
34235;BME280;20500;49.856;20.290;2022-12-07T13:52:16;98316.45;;;3.96;85.01
34235;BME280;20500;49.856;20.290;2022-12-07T13:55:23;98317.85;;;3.94;85.02
34235;BME280;20500;49.856;20.290;2022-12-07T13:58:31;98321.27;;;3.90;84.96
34235;BME280;20500;49.856;20.290;2022-12-07T14:01:38;98321.94;;;3.89;84.97
34235;BME280;20500;49.856;20.290;2022-12-07T14:04:44;98321.00;;;3.90;84.95
34235;BME280;20500;49.856;20.290;2022-12-07T14:07:57;98320.32;;;3.89;84.92
34235;BME280;20500;49.856;20.290;2022-12-07T14:11:03;98319.93;;;3.88;84.87
34235;BME280;20500;49.856;20.290;2022-12-07T14:14:15;98321.84;;;3.89;84.83
34235;BME280;20500;49.856;20.290;2022-12-07T14:17:23;98319.40;;;3.86;84.74
34235;BME280;20500;49.856;20.290;2022-12-07T14:20:35;98325.80;;;3.85;84.61
34235;BME280;20500;49.856;20.290;2022-12-07T14:23:41;98328.59;;;3.84;84.66
34235;BME280;20500;49.856;20.290;2022-12-07T14:26:48;98327.83;;;3.80;84.33
34235;BME280;20500;49.856;20.290;2022-12-07T14:29:54;98323.67;;;3.69;84.01
34235;BME280;20500;49.856;20.290;2022-12-07T14:33:02;98324.92;;;3.60;83.96
34235;BME280;20500;49.856;20.290;2022-12-07T14:36:10;98325.03;;;3.54;83.69
34235;BME280;20500;49.856;20.290;2022-12-07T14:39:16;98323.98;;;3.49;83.45
34235;BME280;20500;49.856;20.290;2022-12-07T14:42:25;98324.10;;;3.42;83.45
34235;BME280;20500;49.856;20.290;2022-12-07T14:45:32;98325.41;;;3.34;83.27
34235;BME280;20500;49.856;20.290;2022-12-07T14:48:38;98325.35;;;3.24;82.98
34235;BME280;20500;49.856;20.290;2022-12-07T14:52:05;98333.38;;;3.16;83.07
34235;BME280;20500;49.856;20.290;2022-12-07T14:55:32;98339.63;;;3.09;83.02
34235;BME280;20500;49.856;20.290;2022-12-07T14:58:37;98345.02;;;3.04;82.82
34235;BME280;20500;49.856;20.290;2022-12-07T15:01:44;98344.98;;;2.98;82.81
34235;BME280;20500;49.856;20.290;2022-12-07T15:04:49;98346.21;;;2.93;82.68
34235;BME280;20500;49.856;20.290;2022-12-07T15:07:55;98348.55;;;2.89;82.74
34235;BME280;20500;49.856;20.290;2022-12-07T15:11:01;98353.52;;;2.88;82.94
34235;BME280;20500;49.856;20.290;2022-12-07T15:14:07;98349.37;;;2.86;82.83
34235;BME280;20500;49.856;20.290;2022-12-07T15:17:16;98347.64;;;2.80;82.54
34235;BME280;20500;49.856;20.290;2022-12-07T15:20:34;98347.40;;;2.74;82.59
34235;BME280;20500;49.856;20.290;2022-12-07T15:23:40;98350.63;;;2.68;82.56
34235;BME280;20500;49.856;20.290;2022-12-07T15:26:46;98348.55;;;2.62;82.48
34235;BME280;20500;49.856;20.290;2022-12-07T15:29:51;98340.45;;;2.57;82.42
34235;BME280;20500;49.856;20.290;2022-12-07T15:32:58;98331.63;;;2.52;82.42
34235;BME280;20500;49.856;20.290;2022-12-07T15:36:04;98320.69;;;2.46;82.33
34235;BME280;20500;49.856;20.290;2022-12-07T15:39:11;98318.39;;;2.39;82.12
34235;BME280;20500;49.856;20.290;2022-12-07T15:42:18;98325.79;;;2.33;82.10
34235;BME280;20500;49.856;20.290;2022-12-07T15:45:24;98336.00;;;2.31;82.37
34235;BME280;20500;49.856;20.290;2022-12-07T15:48:29;98339.15;;;2.28;82.31
34235;BME280;20500;49.856;20.290;2022-12-07T15:51:35;98347.14;;;2.25;82.41
34235;BME280;20500;49.856;20.290;2022-12-07T15:54:41;98351.27;;;2.25;82.32
34235;BME280;20500;49.856;20.290;2022-12-07T15:57:47;98354.77;;;2.26;82.28
34235;BME280;20500;49.856;20.290;2022-12-07T16:00:53;98354.83;;;2.25;82.34
34235;BME280;20500;49.856;20.290;2022-12-07T16:03:59;98353.58;;;2.25;82.32
34235;BME280;20500;49.856;20.290;2022-12-07T16:07:05;98354.71;;;2.26;82.50
34235;BME280;20500;49.856;20.290;2022-12-07T16:10:11;98360.62;;;2.28;82.32
34235;BME280;20500;49.856;20.290;2022-12-07T16:13:15;98360.66;;;2.30;82.38
34235;BME280;20500;49.856;20.290;2022-12-07T16:16:23;98367.80;;;2.32;82.35
34235;BME280;20500;49.856;20.290;2022-12-07T16:19:27;98374.55;;;2.34;82.19
34235;BME280;20500;49.856;20.290;2022-12-07T16:22:32;98376.80;;;2.37;82.13
34235;BME280;20500;49.856;20.290;2022-12-07T16:25:38;98377.11;;;2.37;82.00
34235;BME280;20500;49.856;20.290;2022-12-07T16:28:44;98381.85;;;2.40;82.06
34235;BME280;20500;49.856;20.290;2022-12-07T16:31:50;98383.09;;;2.42;82.10
34235;BME280;20500;49.856;20.290;2022-12-07T16:34:56;98381.95;;;2.48;82.14
34235;BME280;20500;49.856;20.290;2022-12-07T16:38:02;98379.53;;;2.53;81.91
34235;BME280;20500;49.856;20.290;2022-12-07T16:41:08;98380.56;;;2.55;81.93
34235;BME280;20500;49.856;20.290;2022-12-07T16:44:14;98381.06;;;2.58;81.62
34235;BME280;20500;49.856;20.290;2022-12-07T16:47:20;98380.77;;;2.57;81.71
34235;BME280;20500;49.856;20.290;2022-12-07T16:50:25;98383.23;;;2.56;81.53
34235;BME280;20500;49.856;20.290;2022-12-07T16:53:31;98382.80;;;2.54;81.48
34235;BME280;20500;49.856;20.290;2022-12-07T16:56:36;98384.14;;;2.53;81.47